Time;durP1;ratioP1;P1;durP2;ratioP2;P2;SDS_P1;SDS_P2;PMS_P1;PMS_P2;Temp;Humidity;BMP_temperature;BMP_pressure;BME280_temperature;BME280_humidity;BME280_pressure;Samples;Min_cycle;Max_cycle;Signal;HPM_P1;HPM_P2
2021/05/02 00:01:10;;;;;;;12.27;6.50;;;3.90;99.90;;;;;;5061326;28;20313;-75
2021/05/02 00:03:39;;;;;;;10.45;6.57;;;3.90;99.90;;;;;;5060955;28;20029;-75
2021/05/02 00:06:08;;;;;;;13.88;6.88;;;3.90;99.90;;;;;;5061374;28;20017;-75
2021/05/02 00:08:36;;;;;;;14.18;6.90;;;3.90;99.90;;;;;;5060844;28;20369;-77
2021/05/02 00:11:06;;;;;;;12.05;7.68;;;3.90;99.90;;;;;;5061288;28;20021;-77
2021/05/02 00:13:36;;;;;;;10.20;6.25;;;3.90;99.90;;;;;;5060807;28;20024;-77
2021/05/02 00:16:05;;;;;;;11.95;6.38;;;4.00;99.90;;;;;;5060547;28;20045;-77
2021/05/02 00:18:34;;;;;;;10.85;6.47;;;4.00;99.90;;;;;;5060037;28;20033;-77
2021/05/02 00:21:06;;;;;;;10.82;6.47;;;3.90;99.90;;;;;;5059812;28;20021;-77
2021/05/02 00:23:35;;;;;;;12.18;7.32;;;3.90;99.90;;;;;;5059675;28;20017;-77
2021/05/02 00:26:04;;;;;;;13.95;6.45;;;3.90;99.90;;;;;;5059929;28;20035;-77
2021/05/02 00:28:34;;;;;;;10.75;6.75;;;3.90;99.90;;;;;;5059819;28;20029;-78
2021/05/02 00:31:08;;;;;;;12.93;7.28;;;3.90;99.90;;;;;;5059957;28;20024;-77
2021/05/02 00:33:36;;;;;;;14.57;6.80;;;3.90;99.90;;;;;;5059517;28;20025;-77
2021/05/02 00:36:05;;;;;;;15.93;7.35;;;4.00;99.90;;;;;;5059348;28;20021;-77
2021/05/02 00:38:38;;;;;;;12.07;6.72;;;4.00;99.90;;;;;;5060137;28;20392;-78
2021/05/02 00:41:11;;;;;;;12.73;7.32;;;4.00;99.90;;;;;;5060480;28;20025;-78
2021/05/02 00:43:58;;;;;;;30.90;7.93;;;4.00;99.90;;;;;;5060532;28;20494;-77
2021/05/02 00:46:45;;;;;;;11.77;7.25;;;4.00;99.90;;;;;;5060821;28;20025;-78
2021/05/02 00:49:39;;;;;;;11.43;7.32;;;4.00;99.90;;;;;;5060223;28;20028;-75
2021/05/02 00:53:05;;;;;;;11.32;6.85;;;4.00;99.90;;;;;;5057678;28;20048;-75
2021/05/02 00:55:47;;;;;;;12.63;7.47;;;4.10;99.90;;;;;;4982524;28;20094;-75
2021/05/02 00:58:32;;;;;;;12.50;7.30;;;4.10;99.90;;;;;;5059565;28;20123;-75
2021/05/02 01:01:02;;;;;;;13.50;7.30;;;4.10;99.90;;;;;;5058958;28;20029;-75
2021/05/02 01:03:33;;;;;;;11.50;7.28;;;4.10;99.90;;;;;;5041237;28;20032;-77
2021/05/02 01:06:09;;;;;;;11.65;6.75;;;4.10;99.90;;;;;;5058538;28;20060;-77
2021/05/02 01:08:41;;;;;;;9.60;5.78;;;4.10;99.90;;;;;;5059627;28;20025;-77
2021/05/02 01:11:14;;;;;;;10.60;6.03;;;4.10;99.90;;;;;;5058887;28;20051;-77
2021/05/02 01:13:53;;;;;;;12.10;7.45;;;4.00;99.90;;;;;;5058689;28;20052;-77
2021/05/02 01:16:25;;;;;;;9.52;6.30;;;4.00;99.90;;;;;;5058606;28;20163;-77
2021/05/02 01:18:55;;;;;;;13.90;7.20;;;4.00;99.90;;;;;;5059329;28;20075;-78
2021/05/02 01:21:38;;;;;;;11.65;6.97;;;3.90;99.90;;;;;;5059506;28;20025;-77
2021/05/02 01:24:10;;;;;;;14.23;6.75;;;4.00;99.90;;;;;;5059471;28;20036;-77
2021/05/02 01:26:44;;;;;;;10.55;6.63;;;3.90;99.90;;;;;;5059618;28;20443;-77
2021/05/02 01:29:12;;;;;;;12.75;7.35;;;4.00;99.90;;;;;;5059856;28;20025;-77
2021/05/02 01:31:42;;;;;;;14.82;7.90;;;3.90;99.90;;;;;;5059629;28;20017;-78
2021/05/02 01:34:10;;;;;;;12.60;7.60;;;3.90;99.90;;;;;;5059281;28;20017;-78
2021/05/02 01:36:37;;;;;;;14.32;7.50;;;3.90;99.90;;;;;;5059417;28;20021;-77
2021/05/02 01:39:07;;;;;;;11.43;7.05;;;4.00;99.90;;;;;;5059164;28;20029;-77
2021/05/02 01:41:36;;;;;;;11.63;6.55;;;4.00;99.90;;;;;;5058243;28;20021;-78
2021/05/02 01:44:05;;;;;;;16.13;7.85;;;4.00;99.90;;;;;;5058140;28;20302;-77
2021/05/02 01:46:46;;;;;;;13.35;7.53;;;4.00;99.90;;;;;;5058319;28;20455;-77
2021/05/02 01:49:18;;;;;;;11.75;7.13;;;4.00;99.90;;;;;;5058492;28;20028;-77
2021/05/02 01:51:46;;;;;;;12.65;6.72;;;4.00;99.90;;;;;;5058025;28;20096;-77
2021/05/02 01:54:15;;;;;;;13.65;7.13;;;4.00;99.90;;;;;;5058768;28;20024;-77
2021/05/02 01:56:44;;;;;;;12.30;6.97;;;4.00;99.90;;;;;;5058114;28;20023;-78
2021/05/02 01:59:17;;;;;;;12.55;7.25;;;4.00;99.90;;;;;;5058395;28;20028;-77
2021/05/02 02:01:45;;;;;;;13.02;8.05;;;4.00;99.90;;;;;;5058636;28;20109;-77
2021/05/02 02:04:12;;;;;;;13.70;7.43;;;4.00;99.90;;;;;;5059254;28;20032;-78
2021/05/02 02:06:41;;;;;;;13.10;7.82;;;4.00;99.90;;;;;;5059333;28;20021;-77
2021/05/02 02:09:10;;;;;;;12.43;7.80;;;4.00;99.90;;;;;;5040892;28;20077;-77
2021/05/02 02:11:38;;;;;;;13.07;8.25;;;4.10;99.90;;;;;;5059222;28;20017;-77
2021/05/02 02:14:06;;;;;;;14.35;8.18;;;4.00;99.90;;;;;;5058803;28;20043;-77
2021/05/02 02:16:34;;;;;;;17.25;9.50;;;4.00;99.90;;;;;;5057561;28;20040;-77
2021/05/02 02:19:01;;;;;;;14.57;8.55;;;4.10;99.90;;;;;;5040426;28;20036;-77
2021/05/02 02:21:30;;;;;;;14.88;8.30;;;4.10;99.90;;;;;;5057707;28;20024;-77
2021/05/02 02:24:01;;;;;;;18.80;8.45;;;4.10;99.90;;;;;;5057416;28;20029;-78
2021/05/02 02:26:51;;;;;;;15.82;8.77;;;4.20;99.90;;;;;;5039911;28;20028;-77
2021/05/02 02:29:20;;;;;;;18.55;8.98;;;4.20;99.90;;;;;;5057246;28;20086;-77
2021/05/02 02:31:51;;;;;;;17.33;8.93;;;4.20;99.90;;;;;;5057698;28;20013;-77
2021/05/02 02:34:22;;;;;;;14.18;8.45;;;4.20;99.90;;;;;;5057214;28;20402;-77
2021/05/02 02:36:51;;;;;;;17.40;9.90;;;4.30;99.90;;;;;;5057130;28;20079;-77
2021/05/02 02:39:18;;;;;;;17.90;10.68;;;4.30;99.90;;;;;;5057428;28;20039;-77
2021/05/02 02:41:47;;;;;;;17.25;9.48;;;4.30;99.90;;;;;;5058286;28;20021;-77
2021/05/02 02:44:19;;;;;;;21.42;10.68;;;4.30;99.90;;;;;;5058477;28;20387;-77
2021/05/02 02:46:54;;;;;;;20.33;11.90;;;4.40;99.90;;;;;;5057991;28;20025;-77
2021/05/02 02:49:23;;;;;;;18.13;10.80;;;4.40;99.90;;;;;;5057762;28;20431;-77
2021/05/02 02:51:57;;;;;;;20.38;11.73;;;4.40;99.90;;;;;;5057946;28;20035;-77
2021/05/02 02:54:28;;;;;;;25.08;12.15;;;4.40;99.90;;;;;;5058018;28;20467;-78
2021/05/02 02:57:00;;;;;;;21.45;11.80;;;4.50;99.90;;;;;;5058563;28;20309;-77
2021/05/02 02:59:32;;;;;;;24.75;12.38;;;4.50;99.90;;;;;;5057963;28;20120;-78
2021/05/02 03:02:02;;;;;;;22.40;12.02;;;4.50;99.90;;;;;;5057023;28;20021;-78
2021/05/02 03:04:34;;;;;;;21.65;12.15;;;4.50;99.90;;;;;;5038969;28;20028;-77
2021/05/02 03:07:04;;;;;;;22.75;12.30;;;4.50;99.90;;;;;;5038916;28;20060;-78
2021/05/02 03:09:34;;;;;;;22.08;11.75;;;4.50;99.90;;;;;;5056567;28;20032;-77
2021/05/02 03:12:02;;;;;;;20.73;12.85;;;4.60;99.90;;;;;;5039093;28;20021;-77
2021/05/02 03:14:30;;;;;;;24.65;13.32;;;4.60;99.90;;;;;;5057435;28;20021;-77
2021/05/02 03:16:59;;;;;;;25.08;12.95;;;4.60;99.90;;;;;;5056372;28;20037;-78
2021/05/02 03:19:27;;;;;;;25.13;12.65;;;4.60;99.90;;;;;;5056751;28;20314;-78
2021/05/02 03:22:09;;;;;;;24.88;14.10;;;4.60;99.90;;;;;;5056591;28;20056;-78
2021/05/02 03:24:43;;;;;;;23.10;12.40;;;4.60;99.90;;;;;;5057319;28;20032;-78
2021/05/02 03:27:33;;;;;;;20.52;12.48;;;4.60;99.90;;;;;;5057316;28;20044;-77
2021/05/02 03:30:08;;;;;;;21.77;12.82;;;4.50;99.90;;;;;;5057027;28;20031;-78
2021/05/02 03:32:37;;;;;;;22.92;12.70;;;4.50;99.90;;;;;;5058345;28;20313;-77
2021/05/02 03:35:08;;;;;;;24.55;13.10;;;4.60;99.90;;;;;;5057818;28;20413;-78
2021/05/02 03:37:38;;;;;;;18.88;12.65;;;4.50;99.90;;;;;;5057167;28;20029;-78
2021/05/02 03:40:06;;;;;;;23.55;13.00;;;4.50;99.90;;;;;;5039525;28;20416;-78
2021/05/02 03:42:35;;;;;;;28.60;14.55;;;4.50;99.90;;;;;;5056665;28;20025;-77
2021/05/02 03:45:04;;;;;;;25.85;15.00;;;4.50;99.90;;;;;;5056798;28;20021;-78
2021/05/02 03:47:32;;;;;;;24.95;14.50;;;4.50;99.90;;;;;;5056362;28;20017;-78
2021/05/02 03:50:00;;;;;;;25.63;14.88;;;4.50;99.90;;;;;;5056241;28;20325;-78
2021/05/02 03:52:27;;;;;;;25.15;14.40;;;4.40;99.90;;;;;;5056201;28;20021;-77
2021/05/02 03:54:56;;;;;;;28.17;14.00;;;4.40;99.90;;;;;;5056738;28;20119;-78
2021/05/02 03:57:24;;;;;;;25.33;14.82;;;4.40;99.90;;;;;;5056342;28;20043;-78
2021/05/02 03:59:51;;;;;;;25.80;14.68;;;4.40;99.90;;;;;;5056116;28;20021;-78
2021/05/02 04:02:19;;;;;;;24.88;14.48;;;4.50;99.90;;;;;;5056131;28;20027;-78
2021/05/02 04:04:47;;;;;;;23.63;13.75;;;4.50;99.90;;;;;;5057134;28;20017;-78
2021/05/02 04:07:15;;;;;;;24.08;14.40;;;4.50;99.90;;;;;;5057106;28;20317;-78
2021/05/02 04:09:46;;;;;;;27.90;14.60;;;4.50;99.90;;;;;;5056862;28;20409;-77
2021/05/02 04:12:15;;;;;;;28.45;15.32;;;4.50;99.90;;;;;;5057187;28;20103;-78
2021/05/02 04:14:43;;;;;;;26.38;14.70;;;4.50;99.90;;;;;;5039210;28;20372;-78
2021/05/02 04:17:13;;;;;;;28.50;15.90;;;4.50;99.90;;;;;;5056843;28;20041;-78
2021/05/02 04:19:44;;;;;;;26.23;14.90;;;4.50;99.90;;;;;;5056928;28;20448;-78
2021/05/02 04:22:17;;;;;;;26.10;15.38;;;4.50;99.90;;;;;;5056531;28;20025;-77
2021/05/02 04:24:49;;;;;;;26.95;15.80;;;4.50;99.90;;;;;;5056158;28;20022;-78
2021/05/02 04:27:17;;;;;;;22.50;13.45;;;4.50;99.90;;;;;;5038319;28;20444;-78
2021/05/02 04:29:46;;;;;;;24.70;13.93;;;4.50;99.90;;;;;;5056296;28;20037;-78
2021/05/02 04:32:13;;;;;;;26.60;14.77;;;4.50;99.90;;;;;;5055810;28;20025;-78
2021/05/02 04:34:42;;;;;;;26.40;14.82;;;4.50;99.90;;;;;;5056249;28;20025;-78
2021/05/02 04:37:10;;;;;;;24.38;13.50;;;4.50;99.90;;;;;;5056020;28;20028;-78
2021/05/02 04:39:38;;;;;;;23.55;14.07;;;4.50;99.90;;;;;;5055747;28;20031;-78
2021/05/02 04:42:06;;;;;;;31.00;15.80;;;4.50;99.90;;;;;;5059367;28;20017;-77
2021/05/02 04:44:34;;;;;;;40.65;20.65;;;4.50;99.90;;;;;;5041597;28;20036;-78
2021/05/02 04:47:01;;;;;;;37.47;19.95;;;4.50;99.90;;;;;;5060095;28;20020;-78
2021/05/02 04:49:29;;;;;;;38.00;19.75;;;4.50;99.90;;;;;;5060298;28;20029;-77
2021/05/02 04:51:57;;;;;;;36.00;19.20;;;4.50;99.90;;;;;;5060039;28;20074;-78
2021/05/02 04:54:25;;;;;;;26.92;14.80;;;4.60;99.90;;;;;;5060576;28;20067;-77
2021/05/02 04:56:53;;;;;;;31.15;15.55;;;4.60;99.90;;;;;;5060685;28;20028;-78
2021/05/02 04:59:21;;;;;;;24.80;13.70;;;4.70;99.90;;;;;;5060523;28;20060;-78
2021/05/02 05:01:48;;;;;;;25.10;13.32;;;4.70;99.90;;;;;;5042289;28;20025;-78
2021/05/02 05:04:16;;;;;;;27.25;14.13;;;4.70;99.90;;;;;;5059933;28;20017;-78
2021/05/02 05:06:43;;;;;;;25.70;14.43;;;4.80;99.90;;;;;;5059588;28;20032;-78
2021/05/02 05:09:10;;;;;;;25.52;14.13;;;4.80;99.90;;;;;;5059406;28;20360;-78
2021/05/02 05:11:38;;;;;;;26.88;14.48;;;4.90;99.90;;;;;;5058869;28;20017;-77
2021/05/02 05:14:06;;;;;;;26.48;14.93;;;4.90;99.90;;;;;;5058731;28;20017;-78
2021/05/02 05:16:34;;;;;;;25.95;13.70;;;4.90;99.90;;;;;;5058646;28;20124;-78
2021/05/02 05:19:03;;;;;;;25.60;14.60;;;5.00;99.90;;;;;;5041255;28;20317;-77
2021/05/02 05:21:31;;;;;;;25.98;14.50;;;5.00;99.90;;;;;;5058653;28;20049;-78
2021/05/02 05:23:59;;;;;;;24.33;14.18;;;5.10;99.90;;;;;;5058649;28;20029;-78
2021/05/02 05:26:28;;;;;;;29.23;14.50;;;5.10;99.90;;;;;;5040980;28;20025;-78
2021/05/02 05:28:55;;;;;;;25.17;14.23;;;5.20;99.90;;;;;;5059468;28;20020;-77
2021/05/02 05:31:23;;;;;;;25.23;14.43;;;5.20;99.90;;;;;;5059414;28;20076;-78
2021/05/02 05:33:51;;;;;;;22.55;13.65;;;5.30;99.90;;;;;;5041567;28;20372;-81
2021/05/02 05:36:19;;;;;;;25.58;13.82;;;5.30;99.90;;;;;;5041690;28;20021;-75
2021/05/02 05:38:48;;;;;;;23.98;13.93;;;5.40;99.90;;;;;;5059981;28;20071;-75
2021/05/02 05:41:16;;;;;;;25.23;14.10;;;5.40;99.90;;;;;;5059256;28;20025;-74
2021/05/02 05:43:45;;;;;;;24.48;13.70;;;5.50;99.90;;;;;;5059146;28;20413;-75
2021/05/02 05:46:14;;;;;;;23.92;13.75;;;5.60;99.90;;;;;;5059194;28;20044;-75
2021/05/02 05:48:43;;;;;;;23.05;12.60;;;5.60;99.90;;;;;;5058340;28;20024;-75
2021/05/02 05:51:10;;;;;;;20.85;11.43;;;5.70;99.90;;;;;;5057825;28;20025;-75
2021/05/02 05:53:38;;;;;;;21.50;12.48;;;5.80;99.90;;;;;;5058323;28;20066;-78
2021/05/02 05:56:06;;;;;;;17.73;10.85;;;5.80;99.90;;;;;;5058177;28;20021;-78
2021/05/02 05:58:34;;;;;;;23.55;13.30;;;5.80;99.90;;;;;;5058542;28;20143;-78
2021/05/02 06:01:02;;;;;;;24.13;12.75;;;5.90;99.90;;;;;;5057944;28;20032;-78
2021/05/02 06:03:30;;;;;;;22.40;13.77;;;5.90;99.90;;;;;;5058440;28;20079;-78
2021/05/02 06:05:58;;;;;;;23.13;12.88;;;6.00;99.90;;;;;;5057734;28;20024;-78
2021/05/02 06:08:25;;;;;;;19.98;11.15;;;6.00;99.90;;;;;;5058226;28;20025;-78
2021/05/02 06:10:53;;;;;;;22.52;11.55;;;6.00;99.90;;;;;;5058824;28;20063;-78
2021/05/02 06:13:21;;;;;;;20.10;11.95;;;6.00;99.90;;;;;;5058840;28;20017;-75
2021/05/02 06:15:50;;;;;;;21.02;11.73;;;6.00;99.90;;;;;;5058382;28;20040;-75
2021/05/02 06:18:18;;;;;;;19.83;10.93;;;6.10;99.90;;;;;;5059015;28;20028;-75
2021/05/02 06:20:46;;;;;;;19.30;11.45;;;6.20;99.90;;;;;;5059416;28;20032;-75
2021/05/02 06:23:15;;;;;;;19.23;11.48;;;6.20;99.90;;;;;;5058581;28;20036;-75
2021/05/02 06:25:43;;;;;;;18.77;11.05;;;6.30;99.90;;;;;;5058370;28;20025;-75
2021/05/02 06:28:13;;;;;;;18.88;11.48;;;6.30;99.90;;;;;;5058202;28;20410;-75
2021/05/02 06:30:40;;;;;;;19.88;12.18;;;6.40;99.90;;;;;;5057786;28;20021;-75
2021/05/02 06:33:08;;;;;;;18.83;10.45;;;6.50;99.90;;;;;;5039602;28;20083;-75
2021/05/02 06:35:37;;;;;;;16.88;10.02;;;6.50;99.90;;;;;;5057304;28;20032;-77
2021/05/02 06:38:05;;;;;;;17.58;10.52;;;6.60;99.90;;;;;;5057311;28;20043;-73
2021/05/02 06:40:34;;;;;;;17.52;9.68;;;6.70;99.90;;;;;;5057438;28;20033;-74
2021/05/02 06:43:02;;;;;;;16.13;9.50;;;6.70;99.90;;;;;;5039557;28;20040;-74
2021/05/02 06:45:30;;;;;;;18.70;11.57;;;6.70;99.90;;;;;;5039484;28;20036;-75
2021/05/02 06:47:59;;;;;;;15.77;8.68;;;6.80;99.90;;;;;;5039479;28;20082;-77
2021/05/02 06:50:27;;;;;;;16.75;8.57;;;6.80;99.90;;;;;;5039715;28;20116;-74
2021/05/02 06:52:55;;;;;;;16.40;9.82;;;6.80;99.90;;;;;;5057733;28;20025;-77
2021/05/02 06:55:24;;;;;;;14.75;9.07;;;6.90;99.90;;;;;;5040117;28;20021;-76
2021/05/02 06:57:51;;;;;;;13.95;8.05;;;7.00;99.90;;;;;;5040134;28;20029;-70
2021/05/02 07:00:20;;;;;;;12.10;8.07;;;7.00;99.90;;;;;;5040148;28;20029;-72
2021/05/02 07:02:48;;;;;;;13.20;7.50;;;7.10;99.90;;;;;;5039461;28;20035;-71
2021/05/02 07:05:16;;;;;;;15.95;8.57;;;7.10;99.90;;;;;;5039772;28;20029;-72
2021/05/02 07:07:44;;;;;;;14.60;8.43;;;7.10;99.90;;;;;;5057673;28;20025;-72
2021/05/02 07:10:12;;;;;;;15.88;8.07;;;7.20;99.90;;;;;;5039465;28;20017;-72
2021/05/02 07:12:41;;;;;;;13.35;6.90;;;7.30;99.90;;;;;;5039232;28;20027;-72
2021/05/02 07:15:09;;;;;;;10.82;6.57;;;7.40;99.90;;;;;;5038849;28;20017;-73
2021/05/02 07:17:37;;;;;;;14.60;6.97;;;7.40;99.90;;;;;;5039172;28;20071;-74
2021/05/02 07:20:07;;;;;;;11.70;6.38;;;7.50;99.90;;;;;;5057072;28;20043;-71
2021/05/02 07:22:35;;;;;;;12.75;7.03;;;7.60;99.90;;;;;;5038938;28;20375;-72
2021/05/02 07:25:03;;;;;;;13.23;7.32;;;7.70;99.90;;;;;;5038996;28;20032;-73
2021/05/02 07:27:31;;;;;;;9.35;5.95;;;7.70;99.90;;;;;;5056757;28;20336;-73
2021/05/02 07:29:59;;;;;;;11.77;6.05;;;7.80;99.90;;;;;;5039156;28;20037;-72
2021/05/02 07:32:28;;;;;;;14.93;6.97;;;7.80;99.90;;;;;;5039286;28;20044;-73
2021/05/02 07:34:56;;;;;;;11.35;6.75;;;7.70;99.90;;;;;;5057063;28;20425;-73
2021/05/02 07:37:23;;;;;;;10.02;6.00;;;7.70;99.90;;;;;;5057346;28;20082;-73
2021/05/02 07:39:51;;;;;;;12.50;6.18;;;7.80;99.90;;;;;;5039766;28;20122;-71
2021/05/02 07:42:19;;;;;;;12.07;6.80;;;7.80;99.90;;;;;;5039701;28;20029;-70
2021/05/02 07:44:47;;;;;;;10.65;6.63;;;7.90;99.90;;;;;;5057314;28;20017;-74
2021/05/02 07:47:14;;;;;;;12.15;6.85;;;7.90;99.90;;;;;;5039567;28;20092;-72
2021/05/02 07:49:43;;;;;;;10.88;6.30;;;7.90;99.90;;;;;;5039262;28;20039;-74
2021/05/02 07:52:11;;;;;;;10.25;6.35;;;8.00;99.90;;;;;;5056544;28;20029;-76
2021/05/02 07:54:38;;;;;;;11.40;6.03;;;8.00;99.90;;;;;;5038784;28;20017;-78
2021/05/02 07:57:11;;;;;;;8.50;5.45;;;7.90;99.90;;;;;;5038665;28;20021;-76
2021/05/02 07:59:40;;;;;;;10.15;5.90;;;7.90;99.90;;;;;;5056950;28;20021;-76
2021/05/02 08:02:11;;;;;;;11.60;6.45;;;7.80;99.90;;;;;;5038583;28;20034;-77
2021/05/02 08:04:39;;;;;;;15.13;6.53;;;7.80;99.90;;;;;;5038559;28;20025;-74
2021/05/02 08:07:09;;;;;;;11.65;5.90;;;7.80;99.90;;;;;;5056089;28;20021;-74
2021/05/02 08:09:36;;;;;;;9.23;5.40;;;7.80;99.90;;;;;;5056667;28;20028;-74
2021/05/02 08:12:07;;;;;;;8.73;5.13;;;7.60;99.90;;;;;;5056026;28;20050;-74
2021/05/02 08:14:36;;;;;;;10.80;5.35;;;7.60;99.90;;;;;;5057905;28;20440;-75
2021/05/02 08:17:04;;;;;;;11.55;6.40;;;7.50;99.90;;;;;;5060448;28;20111;-72
2021/05/02 08:19:32;;;;;;;11.82;6.20;;;7.50;99.90;;;;;;5060883;28;20025;-72
2021/05/02 08:22:02;;;;;;;9.60;5.68;;;7.50;99.90;;;;;;5061136;28;20096;-73
2021/05/02 08:24:32;;;;;;;10.10;4.88;;;7.40;99.90;;;;;;5060980;28;20025;-73
2021/05/02 08:26:59;;;;;;;10.07;5.15;;;7.40;99.90;;;;;;5061156;28;20021;-72
2021/05/02 08:29:27;;;;;;;8.52;4.88;;;7.40;99.90;;;;;;5060398;28;20040;-72
2021/05/02 08:31:54;;;;;;;9.27;4.85;;;7.50;99.90;;;;;;5060524;28;20013;-72
2021/05/02 08:34:22;;;;;;;9.98;5.45;;;7.60;99.90;;;;;;5041844;28;20018;-73
2021/05/02 08:36:50;;;;;;;9.02;4.60;;;7.70;99.90;;;;;;5041756;28;20025;-73
2021/05/02 08:39:18;;;;;;;7.07;4.30;;;7.80;99.90;;;;;;5059430;28;20348;-73
2021/05/02 08:41:46;;;;;;;6.63;4.00;;;7.70;99.90;;;;;;5059448;28;20452;-73
2021/05/02 08:44:17;;;;;;;9.25;3.83;;;7.60;99.90;;;;;;5060003;28;20103;-75
2021/05/02 08:46:45;;;;;;;7.30;4.32;;;7.50;99.90;;;;;;5059906;28;20123;-75
2021/05/02 08:49:13;;;;;;;7.38;3.97;;;7.40;99.90;;;;;;5059552;28;20103;-74
2021/05/02 08:51:42;;;;;;;10.93;5.97;;;7.20;99.90;;;;;;5059408;28;20017;-74
2021/05/02 08:54:10;;;;;;;10.35;5.93;;;7.10;99.90;;;;;;5059722;28;20467;-73
2021/05/02 08:56:40;;;;;;;8.27;5.63;;;7.00;99.90;;;;;;5042301;28;20021;-74
2021/05/02 08:59:08;;;;;;;11.50;6.03;;;7.00;99.90;;;;;;5060365;28;20025;-74
2021/05/02 09:01:37;;;;;;;11.30;6.20;;;7.00;99.90;;;;;;5059983;28;20021;-75
2021/05/02 09:04:07;;;;;;;8.52;5.40;;;6.90;99.90;;;;;;5060171;28;20071;-76
2021/05/02 09:06:36;;;;;;;8.40;5.35;;;7.00;99.90;;;;;;5042193;28;20033;-74
2021/05/02 09:09:07;;;;;;;10.82;5.68;;;7.00;99.90;;;;;;5059616;28;20036;-73
2021/05/02 09:11:40;;;;;;;9.25;5.00;;;7.00;99.90;;;;;;5042090;28;20025;-75
2021/05/02 09:14:15;;;;;;;12.07;5.47;;;7.00;99.90;;;;;;5059192;28;20025;-72
2021/05/02 09:16:58;;;;;;;10.23;5.35;;;7.00;99.90;;;;;;5058716;28;20041;-74
2021/05/02 09:19:31;;;;;;;12.55;5.40;;;6.90;99.90;;;;;;5058801;28;20385;-74
2021/05/02 09:22:13;;;;;;;12.35;5.68;;;6.90;99.90;;;;;;5058619;28;20306;-74
2021/05/02 09:24:40;;;;;;;10.20;5.47;;;7.00;99.90;;;;;;5058934;28;20028;-75
2021/05/02 09:27:19;;;;;;;11.05;5.90;;;7.00;99.90;;;;;;5058051;28;20096;-75
2021/05/02 09:29:48;;;;;;;10.07;5.90;;;7.00;99.90;;;;;;5058812;28;20025;-75
2021/05/02 09:32:16;;;;;;;9.85;5.80;;;6.90;99.90;;;;;;5040826;28;20032;-75
2021/05/02 09:34:55;;;;;;;10.95;6.25;;;6.90;99.90;;;;;;5058897;28;20294;-75
2021/05/02 09:37:35;;;;;;;14.02;6.35;;;6.90;99.90;;;;;;5041560;28;20021;-77
2021/05/02 09:40:03;;;;;;;11.70;5.88;;;6.90;99.90;;;;;;5059262;28;20021;-73
2021/05/02 09:42:35;;;;;;;9.75;5.78;;;6.90;99.90;;;;;;5041594;28;20085;-73
2021/05/02 09:45:11;;;;;;;10.15;5.90;;;6.90;99.90;;;;;;5059130;28;20021;-73
2021/05/02 09:47:47;;;;;;;52.63;24.80;;;7.00;99.90;;;;;;5059111;28;20021;-76
2021/05/02 09:50:20;;;;;;;12.40;5.97;;;7.00;99.90;;;;;;5059071;28;20469;-75
2021/05/02 09:52:57;;;;;;;10.18;5.40;;;7.10;99.90;;;;;;5059253;28;20036;-75
2021/05/02 09:55:34;;;;;;;12.75;5.30;;;7.30;99.90;;;;;;5058177;28;20374;-75
2021/05/02 09:58:16;;;;;;;9.13;5.00;;;7.40;99.90;;;;;;5058739;28;20021;-75
2021/05/02 10:00:51;;;;;;;10.90;5.20;;;7.60;99.90;;;;;;5058087;28;20025;-73
2021/05/02 10:03:21;;;;;;;10.90;4.75;;;7.70;99.90;;;;;;5058176;28;20298;-73
2021/05/02 10:06:05;;;;;;;9.13;4.45;;;7.70;99.90;;;;;;5040307;28;20146;-73
2021/05/02 10:08:35;;;;;;;7.13;4.35;;;7.90;99.90;;;;;;5057490;28;20436;-73
2021/05/02 10:11:07;;;;;;;8.15;3.20;;;8.00;99.90;;;;;;5057670;28;20028;-73
2021/05/02 10:13:38;;;;;;;7.82;4.43;;;8.10;99.90;;;;;;5057915;28;20020;-73
2021/05/02 10:16:07;;;;;;;8.27;4.88;;;8.10;99.90;;;;;;5059037;28;20033;-73
2021/05/02 10:18:38;;;;;;;7.85;4.40;;;8.20;99.90;;;;;;5058506;28;20036;-73
2021/05/02 10:21:08;;;;;;;9.38;4.43;;;8.30;99.90;;;;;;5058270;28;20033;-72
2021/05/02 10:23:41;;;;;;;9.57;3.92;;;8.50;99.90;;;;;;5058416;28;20025;-72
2021/05/02 10:26:08;;;;;;;7.38;3.65;;;8.60;99.90;;;;;;5058444;28;20435;-77
2021/05/02 10:28:39;;;;;;;6.93;3.80;;;8.60;99.90;;;;;;5058224;28;20112;-76
2021/05/02 10:31:10;;;;;;;9.55;4.38;;;8.70;99.90;;;;;;5058495;28;20040;-76
2021/05/02 10:33:40;;;;;;;7.50;4.28;;;8.80;99.90;;;;;;5058171;28;20091;-77
2021/05/02 10:36:21;;;;;;;6.07;3.08;;;9.00;99.90;;;;;;5057928;28;20104;-73
2021/05/02 10:39:01;;;;;;;6.75;3.55;;;9.10;99.90;;;;;;5056854;28;20025;-75
2021/05/02 10:41:46;;;;;;;8.80;3.50;;;9.20;99.90;;;;;;5057121;28;20033;-78
2021/05/02 10:44:14;;;;;;;7.22;2.80;;;9.40;99.90;;;;;;5057514;28;20100;-78
2021/05/02 10:46:57;;;;;;;5.53;3.47;;;9.50;99.90;;;;;;5057279;28;20028;-81
2021/05/02 10:49:25;;;;;;;5.10;2.45;;;9.70;99.90;;;;;;5057124;28;20032;-76
2021/05/02 10:51:54;;;;;;;6.47;2.90;;;9.90;99.90;;;;;;5057256;28;20025;-73
2021/05/02 10:54:40;;;;;;;4.53;2.67;;;10.10;99.90;;;;;;5057686;28;20360;-72
2021/05/02 10:57:08;;;;;;;4.75;2.60;;;10.20;99.90;;;;;;5056950;28;20457;-73
2021/05/02 10:59:57;;;;;;;4.72;2.40;;;10.40;99.90;;;;;;5057732;28;20036;-72
2021/05/02 11:02:54;;;;;;;6.50;2.50;;;10.50;99.90;;;;;;5058275;28;20021;-73
2021/05/02 11:05:22;;;;;;;5.50;2.50;;;10.50;99.90;;;;;;5045320;28;20126;-76
2021/05/02 11:07:57;;;;;;;7.85;2.95;;;10.40;99.90;;;;;;5057672;28;20027;-78
2021/05/02 11:10:24;;;;;;;11.07;4.18;;;10.30;99.90;;;;;;5040097;28;20104;-76
2021/05/02 11:12:52;;;;;;;5.80;2.42;;;10.10;99.90;;;;;;5042403;28;20060;-77
2021/05/02 11:15:31;;;;;;;3.97;2.28;;;9.90;99.90;;;;;;5057776;28;20067;-73
2021/05/02 11:17:59;;;;;;;4.55;2.80;;;9.70;99.90;;;;;;5056851;28;20056;-73
2021/05/02 11:20:49;;;;;;;5.63;2.83;;;9.70;99.90;;;;;;5056661;28;20021;-74
2021/05/02 11:23:17;;;;;;;5.82;3.10;;;9.80;99.90;;;;;;5056685;28;20021;-78
2021/05/02 11:26:02;;;;;;;5.75;2.97;;;9.90;99.90;;;;;;5057224;28;20309;-76
2021/05/02 11:28:44;;;;;;;9.70;3.60;;;10.00;99.90;;;;;;5056353;28;20083;-75
2021/05/02 11:31:13;;;;;;;5.93;2.95;;;10.20;99.90;;;;;;5056693;28;20360;-78
2021/05/02 11:33:42;;;;;;;4.90;2.75;;;10.50;99.90;;;;;;5057616;28;20021;-78
2021/05/02 11:36:10;;;;;;;31.63;8.93;;;10.70;99.90;;;;;;5056456;28;20376;-75
2021/05/02 11:38:41;;;;;;;5.90;3.28;;;11.00;97.70;;;;;;5056315;28;20079;-79
2021/05/02 11:41:10;;;;;;;4.47;2.33;;;11.20;97.00;;;;;;5039622;28;20024;-78
2021/05/02 11:43:40;;;;;;;4.18;2.33;;;11.40;96.20;;;;;;5056652;28;20365;-78
2021/05/02 11:46:19;;;;;;;4.55;2.28;;;11.60;95.70;;;;;;5056500;28;20025;-78
2021/05/02 11:48:50;;;;;;;4.55;2.10;;;11.80;93.50;;;;;;5056354;28;20360;-78
2021/05/02 11:51:23;;;;;;;3.42;2.00;;;11.90;92.20;;;;;;5060848;28;20028;-78
2021/05/02 11:53:55;;;;;;;3.55;2.00;;;11.80;91.30;;;;;;5061534;28;20341;-78
2021/05/02 11:56:30;;;;;;;3.00;1.70;;;11.70;90.20;;;;;;5044233;28;20017;-77
2021/05/02 11:59:11;;;;;;;4.97;1.88;;;11.70;90.20;;;;;;5060802;28;20036;-78
2021/05/02 12:01:43;;;;;;;4.18;2.00;;;11.70;91.10;;;;;;5061658;28;20028;-78
2021/05/02 12:04:19;;;;;;;5.90;2.20;;;11.70;90.80;;;;;;5061149;28;20325;-78
2021/05/02 12:06:49;;;;;;;4.07;1.40;;;11.60;91.70;;;;;;5061613;28;20082;-78
2021/05/02 12:09:19;;;;;;;3.53;1.70;;;11.30;91.20;;;;;;5061645;28;20017;-77
2021/05/02 12:11:58;;;;;;;2.38;1.10;;;11.00;91.30;;;;;;5061213;28;20024;-77
2021/05/02 12:14:32;;;;;;;3.88;1.27;;;10.60;91.00;;;;;;5061282;28;20020;-77
2021/05/02 12:17:01;;;;;;;3.17;1.90;;;10.00;92.60;;;;;;5060534;28;20056;-77
2021/05/02 12:19:30;;;;;;;5.15;1.30;;;9.60;94.80;;;;;;5062214;28;20317;-78
2021/05/02 12:21:58;;;;;;;2.08;1.30;;;9.40;95.80;;;;;;5060756;28;20036;-77
2021/05/02 12:24:31;;;;;;;4.85;1.60;;;9.40;96.20;;;;;;5060170;28;20025;-77
2021/05/02 12:27:10;;;;;;;3.42;1.88;;;9.50;96.40;;;;;;5060164;28;20104;-77
2021/05/02 12:29:42;;;;;;;4.03;2.40;;;9.70;96.70;;;;;;5061057;28;20029;-77
2021/05/02 12:32:11;;;;;;;2.00;1.27;;;9.90;96.10;;;;;;5059855;28;20017;-78
2021/05/02 12:34:44;;;;;;;3.22;1.20;;;10.20;95.40;;;;;;5059931;28;20044;-75
2021/05/02 12:37:17;;;;;;;2.72;1.42;;;10.50;94.40;;;;;;5059897;28;20150;-75
2021/05/02 12:39:48;;;;;;;3.83;1.50;;;10.70;92.80;;;;;;5059977;28;20428;-75
2021/05/02 12:42:16;;;;;;;3.22;1.05;;;10.90;93.50;;;;;;5061215;28;20409;-75
2021/05/02 12:44:53;;;;;;;2.47;1.20;;;11.10;94.20;;;;;;5060547;28;20025;-76
2021/05/02 12:47:30;;;;;;;4.65;1.60;;;11.20;93.50;;;;;;5043005;28;20455;-75
2021/05/02 12:50:06;;;;;;;2.72;0.80;;;11.10;92.40;;;;;;5060572;28;20039;-75
2021/05/02 12:52:45;;;;;;;2.20;0.80;;;10.90;92.70;;;;;;5060242;28;20321;-75
2021/05/02 12:55:31;;;;;;;1.77;0.90;;;10.50;91.30;;;;;;5060483;28;20040;-77
2021/05/02 12:58:01;;;;;;;2.90;0.98;;;10.20;92.90;;;;;;5060178;28;20051;-77
2021/05/02 13:00:55;;;;;;;1.98;0.50;;;10.10;93.20;;;;;;5058904;28;20024;-76
2021/05/02 13:03:32;;;;;;;3.03;0.68;;;10.20;92.30;;;;;;5058805;28;20021;-76
2021/05/02 13:06:10;;;;;;;0.95;0.60;;;10.40;92.00;;;;;;5059366;28;20017;-77